Terminal Aerodrome Forecast
Issued by NWS Los Angeles, CA

Home | Current Version | Previous Version | Text Only | Print | Product List | Glossary On
Versions: 1 2 3 4 5 6 7 8 9 10 11 12 13 14 15 16 17 18 19 20 21 22 23 24
000
FTUS46 KLOX 210500
TAFSMX
TAF
KSMX 210522Z 2106/2206 30008KT P6SM SKC
     FM210800 VRB03KT P6SM OVC005
     FM211100 VRB03KT 4SM BR OVC003
     FM211700 VRB03KT P6SM SKC
     FM212000 32012KT P6SM SKC
     FM220500 32007KT P6SM BKN005=

USA.gov is the U.S. government's official web portal to all federal, state and local government web resources and services.